sensor_id;sensor_type;location;lat;lon;timestamp;P1;durP1;ratioP1;P2;durP2;ratioP2
8885;SDS011;4479;51.162;13.906;2022-09-27T00:00:05;3.80;;;1.77;;
8885;SDS011;4479;51.162;13.906;2022-09-27T00:10:14;2.53;;;1.63;;
8885;SDS011;4479;51.162;13.906;2022-09-27T00:20:19;2.37;;;1.50;;
8885;SDS011;4479;51.162;13.906;2022-09-27T00:30:23;2.03;;;1.70;;
8885;SDS011;4479;51.162;13.906;2022-09-27T00:40:27;1.60;;;1.50;;
8885;SDS011;4479;51.162;13.906;2022-09-27T00:50:30;1.30;;;1.20;;
8885;SDS011;4479;51.162;13.906;2022-09-27T01:00:40;1.60;;;1.40;;
8885;SDS011;4479;51.162;13.906;2022-09-27T01:10:47;1.37;;;1.27;;
8885;SDS011;4479;51.162;13.906;2022-09-27T01:31:45;1.20;;;1.10;;
8885;SDS011;4479;51.162;13.906;2022-09-27T01:41:55;1.40;;;1.30;;
8885;SDS011;4479;51.162;13.906;2022-09-27T01:52:14;1.20;;;1.10;;
8885;SDS011;4479;51.162;13.906;2022-09-27T02:02:21;1.20;;;1.03;;
8885;SDS011;4479;51.162;13.906;2022-09-27T02:12:48;1.40;;;1.10;;
8885;SDS011;4479;51.162;13.906;2022-09-27T02:22:58;2.20;;;1.40;;
8885;SDS011;4479;51.162;13.906;2022-09-27T02:33:12;2.03;;;1.50;;
8885;SDS011;4479;51.162;13.906;2022-09-27T02:43:16;1.50;;;1.40;;
8885;SDS011;4479;51.162;13.906;2022-09-27T02:53:24;2.20;;;1.77;;
8885;SDS011;4479;51.162;13.906;2022-09-27T03:03:39;2.60;;;1.80;;
8885;SDS011;4479;51.162;13.906;2022-09-27T03:13:47;2.53;;;1.63;;
8885;SDS011;4479;51.162;13.906;2022-09-27T03:23:50;2.57;;;1.80;;
8885;SDS011;4479;51.162;13.906;2022-09-27T03:33:54;2.27;;;1.93;;
8885;SDS011;4479;51.162;13.906;2022-09-27T03:43:57;2.20;;;2.00;;
8885;SDS011;4479;51.162;13.906;2022-09-27T03:54:01;2.43;;;2.20;;
8885;SDS011;4479;51.162;13.906;2022-09-27T04:04:04;2.77;;;2.23;;
8885;SDS011;4479;51.162;13.906;2022-09-27T04:14:08;3.53;;;2.37;;
8885;SDS011;4479;51.162;13.906;2022-09-27T04:24:28;2.20;;;2.00;;
8885;SDS011;4479;51.162;13.906;2022-09-27T04:34:50;2.37;;;2.17;;
8885;SDS011;4479;51.162;13.906;2022-09-27T04:45:11;2.60;;;2.40;;
8885;SDS011;4479;51.162;13.906;2022-09-27T04:55:15;2.80;;;2.50;;
8885;SDS011;4479;51.162;13.906;2022-09-27T05:05:18;3.40;;;2.70;;
8885;SDS011;4479;51.162;13.906;2022-09-27T05:15:25;3.40;;;2.60;;
8885;SDS011;4479;51.162;13.906;2022-09-27T05:25:53;2.90;;;2.60;;
8885;SDS011;4479;51.162;13.906;2022-09-27T05:35:58;2.80;;;2.60;;
8885;SDS011;4479;51.162;13.906;2022-09-27T05:46:04;3.60;;;3.07;;
8885;SDS011;4479;51.162;13.906;2022-09-27T05:56:09;3.83;;;3.07;;
8885;SDS011;4479;51.162;13.906;2022-09-27T06:06:30;3.47;;;3.10;;
8885;SDS011;4479;51.162;13.906;2022-09-27T06:16:35;3.87;;;3.47;;
8885;SDS011;4479;51.162;13.906;2022-09-27T06:26:37;4.80;;;3.47;;
8885;SDS011;4479;51.162;13.906;2022-09-27T06:37:05;4.00;;;3.20;;
8885;SDS011;4479;51.162;13.906;2022-09-27T06:47:08;3.80;;;3.50;;
8885;SDS011;4479;51.162;13.906;2022-09-27T06:57:27;3.43;;;3.13;;
8885;SDS011;4479;51.162;13.906;2022-09-27T07:07:44;4.47;;;4.07;;
8885;SDS011;4479;51.162;13.906;2022-09-27T07:17:55;4.00;;;3.70;;
8885;SDS011;4479;51.162;13.906;2022-09-27T07:28:01;4.43;;;4.03;;
8885;SDS011;4479;51.162;13.906;2022-09-27T07:38:08;4.27;;;3.90;;
8885;SDS011;4479;51.162;13.906;2022-09-27T07:48:16;4.23;;;3.93;;
8885;SDS011;4479;51.162;13.906;2022-09-27T07:58:50;4.33;;;3.93;;
8885;SDS011;4479;51.162;13.906;2022-09-27T08:08:57;4.43;;;4.03;;
8885;SDS011;4479;51.162;13.906;2022-09-27T08:19:04;4.57;;;4.17;;
8885;SDS011;4479;51.162;13.906;2022-09-27T08:29:31;5.10;;;3.73;;
8885;SDS011;4479;51.162;13.906;2022-09-27T08:39:36;4.77;;;4.30;;
8885;SDS011;4479;51.162;13.906;2022-09-27T08:49:42;3.83;;;3.43;;
8885;SDS011;4479;51.162;13.906;2022-09-27T08:59:52;2.50;;;2.30;;
8885;SDS011;4479;51.162;13.906;2022-09-27T09:10:01;2.30;;;2.10;;
8885;SDS011;4479;51.162;13.906;2022-09-27T09:20:21;2.70;;;2.47;;
8885;SDS011;4479;51.162;13.906;2022-09-27T09:30:34;1.33;;;1.17;;
8885;SDS011;4479;51.162;13.906;2022-09-27T09:40:47;1.40;;;1.30;;
8885;SDS011;4479;51.162;13.906;2022-09-27T09:50:52;0.97;;;0.50;;
8885;SDS011;4479;51.162;13.906;2022-09-27T10:01:04;1.10;;;0.80;;
8885;SDS011;4479;51.162;13.906;2022-09-27T10:11:17;1.80;;;0.50;;
8885;SDS011;4479;51.162;13.906;2022-09-27T10:21:31;0.50;;;0.40;;
8885;SDS011;4479;51.162;13.906;2022-09-27T10:31:36;1.53;;;0.50;;
8885;SDS011;4479;51.162;13.906;2022-09-27T10:41:52;0.50;;;0.50;;
8885;SDS011;4479;51.162;13.906;2022-09-27T10:52:06;0.50;;;0.50;;
8885;SDS011;4479;51.162;13.906;2022-09-27T11:02:19;0.20;;;0.20;;
8885;SDS011;4479;51.162;13.906;2022-09-27T11:12:35;0.57;;;0.30;;
8885;SDS011;4479;51.162;13.906;2022-09-27T11:22:52;0.53;;;0.50;;
8885;SDS011;4479;51.162;13.906;2022-09-27T11:44:08;0.37;;;0.37;;
8885;SDS011;4479;51.162;13.906;2022-09-27T11:54:27;0.40;;;0.40;;
8885;SDS011;4479;51.162;13.906;2022-09-27T12:04:42;1.00;;;0.80;;
8885;SDS011;4479;51.162;13.906;2022-09-27T12:15:02;0.53;;;0.43;;
8885;SDS011;4479;51.162;13.906;2022-09-27T12:25:10;1.47;;;0.40;;
8885;SDS011;4479;51.162;13.906;2022-09-27T12:35:22;0.50;;;0.50;;
8885;SDS011;4479;51.162;13.906;2022-09-27T12:45:39;0.30;;;0.30;;
8885;SDS011;4479;51.162;13.906;2022-09-27T12:56:01;0.33;;;0.30;;
8885;SDS011;4479;51.162;13.906;2022-09-27T13:06:27;0.30;;;0.30;;
8885;SDS011;4479;51.162;13.906;2022-09-27T13:16:40;4.00;;;2.60;;
8885;SDS011;4479;51.162;13.906;2022-09-27T13:26:50;0.70;;;0.60;;
8885;SDS011;4479;51.162;13.906;2022-09-27T13:36:56;1.57;;;0.50;;
8885;SDS011;4479;51.162;13.906;2022-09-27T13:47:02;0.57;;;0.57;;
8885;SDS011;4479;51.162;13.906;2022-09-27T14:07:43;0.90;;;0.77;;
8885;SDS011;4479;51.162;13.906;2022-09-27T14:17:50;0.67;;;0.67;;
8885;SDS011;4479;51.162;13.906;2022-09-27T14:27:56;1.33;;;0.80;;
8885;SDS011;4479;51.162;13.906;2022-09-27T14:38:09;0.60;;;0.60;;
8885;SDS011;4479;51.162;13.906;2022-09-27T14:48:20;0.50;;;0.50;;
8885;SDS011;4479;51.162;13.906;2022-09-27T16:52:59;1.83;;;1.63;;
8885;SDS011;4479;51.162;13.906;2022-09-27T17:03:05;6.47;;;3.13;;
8885;SDS011;4479;51.162;13.906;2022-09-27T17:13:11;3.20;;;1.30;;
8885;SDS011;4479;51.162;13.906;2022-09-27T17:23:15;1.10;;;1.00;;
8885;SDS011;4479;51.162;13.906;2022-09-27T17:33:23;3.13;;;1.20;;
8885;SDS011;4479;51.162;13.906;2022-09-27T17:43:26;1.73;;;1.40;;
8885;SDS011;4479;51.162;13.906;2022-09-27T17:53:35;1.47;;;1.13;;
8885;SDS011;4479;51.162;13.906;2022-09-27T18:03:41;1.63;;;1.10;;
8885;SDS011;4479;51.162;13.906;2022-09-27T20:20:59;3.17;;;1.30;;
8885;SDS011;4479;51.162;13.906;2022-09-27T20:31:06;0.97;;;0.77;;
8885;SDS011;4479;51.162;13.906;2022-09-27T20:41:14;0.77;;;0.73;;
8885;SDS011;4479;51.162;13.906;2022-09-27T20:51:19;1.20;;;0.77;;
8885;SDS011;4479;51.162;13.906;2022-09-27T21:01:25;1.83;;;0.70;;
8885;SDS011;4479;51.162;13.906;2022-09-27T21:11:29;0.80;;;0.80;;
8885;SDS011;4479;51.162;13.906;2022-09-27T21:21:34;1.07;;;0.63;;
8885;SDS011;4479;51.162;13.906;2022-09-27T21:31:37;0.60;;;0.60;;
8885;SDS011;4479;51.162;13.906;2022-09-27T21:41:42;0.90;;;0.80;;
8885;SDS011;4479;51.162;13.906;2022-09-27T21:51:46;1.27;;;0.80;;
8885;SDS011;4479;51.162;13.906;2022-09-27T22:01:51;0.73;;;0.70;;
8885;SDS011;4479;51.162;13.906;2022-09-27T22:11:54;0.50;;;0.50;;
8885;SDS011;4479;51.162;13.906;2022-09-27T22:21:59;0.90;;;0.77;;
8885;SDS011;4479;51.162;13.906;2022-09-27T22:32:02;1.57;;;0.80;;
8885;SDS011;4479;51.162;13.906;2022-09-27T22:42:07;0.60;;;0.60;;
8885;SDS011;4479;51.162;13.906;2022-09-27T22:52:11;0.70;;;0.70;;
8885;SDS011;4479;51.162;13.906;2022-09-27T23:02:16;0.90;;;0.70;;
8885;SDS011;4479;51.162;13.906;2022-09-27T23:12:19;0.63;;;0.57;;
8885;SDS011;4479;51.162;13.906;2022-09-27T23:22:24;0.70;;;0.70;;
8885;SDS011;4479;51.162;13.906;2022-09-27T23:32:28;0.60;;;0.60;;
8885;SDS011;4479;51.162;13.906;2022-09-27T23:42:33;0.70;;;0.60;;
8885;SDS011;4479;51.162;13.906;2022-09-27T23:52:37;1.03;;;0.50;;
